Time;durP1;ratioP1;P1;durP2;ratioP2;P2;SDS_P1;SDS_P2;PMS_P1;PMS_P2;Temp;Humidity;BMP_temperature;BMP_pressure;BME280_temperature;BME280_humidity;BME280_pressure;Samples;Min_cycle;Max_cycle;Signal;HPM_P1;HPM_P2
2023/09/13 00:02:11;;;;;;;;;25.33;20.67;;;;;19.41;100.00;101462.31;5104010;27;45548;-75
2023/09/13 00:04:37;;;;;;;;;23.67;19.67;;;;;19.29;100.00;101443.56;5108206;27;46197;-75
2023/09/13 00:07:02;;;;;;;;;19.00;15.67;;;;;19.27;100.00;101437.47;5113622;27;45809;-74
2023/09/13 00:09:27;;;;;;;;;18.33;17.00;;;;;19.33;100.00;101453.97;5108836;27;45458;-74
2023/09/13 00:11:53;;;;;;;;;22.33;17.67;;;;;19.22;100.00;101445.84;5102805;27;47229;-75
2023/09/13 00:14:18;;;;;;;;;19.67;18.67;;;;;19.20;100.00;101447.78;5118676;27;46801;-74
2023/09/13 00:16:43;;;;;;;;;18.67;18.33;;;;;19.18;100.00;101449.69;5117349;27;47366;-74
2023/09/13 00:19:08;;;;;;;;;20.33;18.33;;;;;19.18;100.00;101455.94;5104165;27;45514;-74
2023/09/13 00:21:34;;;;;;;;;20.00;19.67;;;;;19.15;100.00;101461.50;5108382;27;45302;-74
2023/09/13 00:24:00;;;;;;;;;23.00;18.67;;;;;19.08;100.00;101452.19;5104389;27;45283;-74
2023/09/13 00:26:25;;;;;;;;;18.33;16.67;;;;;19.07;100.00;101452.31;5103431;27;45295;-75
2023/09/13 00:28:50;;;;;;;;;23.00;21.33;;;;;19.07;100.00;101465.72;5115787;27;45293;-74
2023/09/13 00:31:16;;;;;;;;;17.00;17.00;;;;;19.05;100.00;101457.78;5103835;27;45291;-75
2023/09/13 00:33:42;;;;;;;;;20.33;19.33;;;;;19.03;100.00;101461.53;5118869;27;46815;-74
2023/09/13 00:36:07;;;;;;;;;19.67;18.33;;;;;18.98;100.00;101450.28;5101792;27;45479;-75
2023/09/13 00:38:32;;;;;;;;;21.00;21.00;;;;;19.02;100.00;101463.38;5109569;27;45464;-74
2023/09/13 00:40:58;;;;;;;;;22.00;19.33;;;;;18.97;100.00;101443.22;5107696;27;45674;-74
2023/09/13 00:43:24;;;;;;;;;21.33;19.00;;;;;19.01;100.00;101450.09;5115322;27;45455;-74
2023/09/13 00:45:50;;;;;;;;;17.33;15.33;;;;;18.96;100.00;101457.59;5101885;27;45546;-74
2023/09/13 00:48:17;;;;;;;;;21.33;19.00;;;;;18.96;100.00;101460.25;5106595;27;45504;-74
2023/09/13 00:50:45;;;;;;;;;22.67;20.00;;;;;18.93;100.00;101461.34;5112054;27;45557;-74
2023/09/13 00:53:11;;;;;;;;;22.00;17.33;;;;;18.91;100.00;101465.13;5102094;27;45411;-74
2023/09/13 00:55:37;;;;;;;;;18.33;17.33;;;;;18.87;100.00;101468.97;5102300;27;45285;-75
2023/09/13 00:58:04;;;;;;;;;21.00;20.00;;;;;18.79;100.00;101463.28;5107965;27;45311;-74
2023/09/13 01:00:32;;;;;;;;;21.00;19.67;;;;;18.80;100.00;101468.53;5106826;27;45539;-75
2023/09/13 01:02:59;;;;;;;;;20.33;18.00;;;;;18.82;100.00;101465.75;5115121;27;46775;-74
2023/09/13 01:05:25;;;;;;;;;21.67;18.67;;;;;18.79;100.00;101474.00;5101245;27;45288;-74
2023/09/13 01:07:51;;;;;;;;;19.67;18.67;;;;;18.80;100.00;101462.31;5112248;27;45545;-75
2023/09/13 01:10:17;;;;;;;;;19.00;16.00;;;;;18.67;100.00;101448.94;5110761;27;45362;-74
2023/09/13 01:12:42;;;;;;;;;19.67;18.67;;;;;18.72;100.00;101465.53;5111320;27;45726;-75
2023/09/13 01:15:08;;;;;;;;;20.00;17.00;;;;;18.79;100.00;101471.31;5107550;27;45632;-74
2023/09/13 01:17:37;;;;;;;;;22.33;19.67;;;;;18.77;100.00;101463.41;5112893;27;45274;-75
2023/09/13 01:20:10;;;;;;;;;23.00;21.00;;;;;18.77;100.00;101460.72;5109134;27;45313;-74
2023/09/13 01:23:03;;;;;;;;;21.67;18.33;;;;;18.75;100.00;101459.97;5102777;27;45464;-74
2023/09/13 01:25:50;;;;;;;;;23.00;20.67;;;;;18.75;100.00;101462.63;5101649;27;45331;-74
2023/09/13 01:28:40;;;;;;;;;20.33;19.33;;;;;18.77;100.00;101467.91;5112378;27;45308;-75
2023/09/13 01:31:08;;;;;;;;;22.67;21.33;;;;;18.66;100.00;101441.84;5105792;27;45489;-74
2023/09/13 01:33:33;;;;;;;;;23.00;23.00;;;;;18.77;100.00;101454.50;5102549;27;45351;-74
2023/09/13 01:35:59;;;;;;;;;23.33;22.00;;;;;18.86;100.00;101461.88;5112797;27;45433;-75
2023/09/13 01:38:25;;;;;;;;;28.67;24.67;;;;;18.82;100.00;101446.97;5102933;27;45481;-75
2023/09/13 01:40:54;;;;;;;;;24.67;20.67;;;;;18.91;100.00;101457.94;5105920;27;45372;-74
2023/09/13 01:43:20;;;;;;;;;29.67;24.00;;;;;18.85;100.00;101458.34;5117150;27;45394;-75
2023/09/13 01:45:48;;;;;;;;;24.33;22.33;;;;;18.92;100.00;101464.97;5106245;27;45634;-75
2023/09/13 01:48:16;;;;;;;;;24.33;24.00;;;;;18.94;100.00;101470.25;5112508;27;45377;-75
2023/09/13 01:50:42;;;;;;;;;24.67;19.67;;;;;18.91;100.00;101467.78;5105706;27;45512;-75
2023/09/13 01:53:07;;;;;;;;;26.67;26.67;;;;;18.87;100.00;101456.44;5102824;27;45429;-75
2023/09/13 01:55:34;;;;;;;;;15.33;8.33;;;;;18.95;100.00;101485.34;5113056;27;45370;-74
2023/09/13 01:58:00;;;;;;;;;18.67;18.67;;;;;18.94;100.00;101486.34;5102214;27;45450;-75
2023/09/13 02:00:25;;;;;;;;;28.00;23.33;;;;;18.88;100.00;101481.41;5103959;27;50632;-75
2023/09/13 02:02:50;;;;;;;;;26.00;23.67;;;;;18.83;100.00;101476.38;5104531;27;46181;-75
2023/09/13 02:05:16;;;;;;;;;23.33;21.00;;;;;18.89;100.00;101489.34;5101577;27;54001;-75
2023/09/13 02:07:41;;;;;;;;;26.00;20.67;;;;;18.88;100.00;101484.09;5103930;27;45299;-74
2023/09/13 02:10:07;;;;;;;;;23.67;20.67;;;;;18.87;100.00;101493.97;5105008;27;45523;-75
2023/09/13 02:12:32;;;;;;;;;22.67;18.67;;;;;18.75;100.00;101484.06;5121063;27;46825;-74
2023/09/13 02:14:57;;;;;;;;;20.33;17.67;;;;;18.79;100.00;101500.81;5104194;27;47310;-74
2023/09/13 02:17:23;;;;;;;;;26.33;21.33;;;;;18.75;100.00;101504.69;5113115;27;45367;-75
2023/09/13 02:19:49;;;;;;;;;21.00;20.00;;;;;18.69;100.00;101500.59;5114159;27;45608;-74
2023/09/13 02:22:15;;;;;;;;;22.00;21.00;;;;;18.69;100.00;101517.53;5121132;27;45358;-74
2023/09/13 02:24:40;;;;;;;;;20.33;20.33;;;;;18.68;100.00;101514.97;5103011;27;45354;-74
2023/09/13 02:27:06;;;;;;;;;23.00;20.33;;;;;18.68;100.00;101518.50;5107790;27;45463;-74
2023/09/13 02:29:31;;;;;;;;;20.33;18.67;;;;;18.67;100.00;101521.28;5112924;27;45387;-74
2023/09/13 02:31:56;;;;;;;;;21.67;17.33;;;;;18.63;100.00;101517.09;5104136;27;45468;-75
2023/09/13 02:34:22;;;;;;;;;25.00;23.33;;;;;18.71;100.00;101517.44;5111781;27;47018;-74
2023/09/13 02:36:47;;;;;;;;;22.33;18.67;;;;;18.74;100.00;101517.22;5115598;27;45429;-74
2023/09/13 02:39:36;;;;;;;;;20.33;20.33;;;;;18.77;100.00;101532.22;5108065;27;45514;-75
2023/09/13 02:42:02;;;;;;;;;20.33;19.33;;;;;18.78;100.00;101521.41;5111094;27;46102;-74
2023/09/13 02:44:28;;;;;;;;;21.33;19.67;;;;;18.77;100.00;101511.66;5114288;27;45581;-74
2023/09/13 02:46:53;;;;;;;;;23.33;20.00;;;;;18.81;100.00;101518.50;5099973;27;45447;-74
2023/09/13 02:49:18;;;;;;;;;20.33;20.00;;;;;18.72;100.00;101511.97;5100188;27;55127;-75
2023/09/13 02:51:44;;;;;;;;;23.67;18.67;;;;;18.76;100.00;101501.03;5114447;27;46515;-75
2023/09/13 02:54:09;;;;;;;;;30.33;24.33;;;;;18.79;100.00;101512.38;5118924;27;45306;-75
2023/09/13 02:56:34;;;;;;;;;29.00;19.00;;;;;18.77;100.00;101505.44;5119164;27;45290;-75
2023/09/13 02:59:00;;;;;;;;;21.00;18.67;;;;;18.70;100.00;101499.63;5105900;27;45541;-75
2023/09/13 03:01:25;;;;;;;;;23.67;21.67;;;;;18.80;100.00;101514.13;5107989;27;48291;-75
2023/09/13 03:03:50;;;;;;;;;22.00;19.67;;;;;18.77;100.00;101533.09;5104980;27;46887;-75
2023/09/13 03:06:15;;;;;;;;;20.67;19.33;;;;;18.66;100.00;101504.34;5100578;27;53969;-75
2023/09/13 03:08:42;;;;;;;;;24.00;22.67;;;;;18.81;100.00;101536.41;5099691;27;52823;-75
2023/09/13 03:11:09;;;;;;;;;21.33;18.67;;;;;18.80;100.00;101543.59;5107705;27;47780;-75
2023/09/13 03:13:35;;;;;;;;;19.33;17.67;;;;;18.79;100.00;101532.97;5110006;27;45581;-75
2023/09/13 03:16:00;;;;;;;;;26.33;17.00;;;;;18.80;100.00;101529.34;5113644;27;45312;-75
2023/09/13 03:18:25;;;;;;;;;21.67;16.67;;;;;18.73;100.00;101523.53;5112439;27;45268;-75
2023/09/13 03:20:51;;;;;;;;;21.33;17.00;;;;;18.74;100.00;101519.91;5100618;27;49334;-75
2023/09/13 03:23:16;;;;;;;;;18.67;18.67;;;;;18.78;100.00;101524.09;5100823;27;45728;-75
2023/09/13 03:25:42;;;;;;;;;12.33;11.67;;;;;18.76;100.00;101519.78;5107448;27;45424;-75
2023/09/13 03:28:07;;;;;;;;;17.67;17.67;;;;;18.78;100.00;101529.44;5109559;27;45232;-75
2023/09/13 03:30:34;;;;;;;;;19.33;16.67;;;;;18.75;100.00;101520.78;5106955;27;45293;-75
2023/09/13 03:32:59;;;;;;;;;17.67;17.33;;;;;18.80;100.00;101527.50;5117686;27;45336;-74
2023/09/13 03:35:25;;;;;;;;;19.33;17.33;;;;;18.72;100.00;101517.31;5113075;27;45764;-75
2023/09/13 03:37:50;;;;;;;;;18.33;16.33;;;;;18.76;100.00;101526.00;5111929;27;45511;-75
2023/09/13 03:40:16;;;;;;;;;20.00;17.00;;;;;18.71;100.00;101504.03;5101873;27;48721;-75
2023/09/13 03:42:41;;;;;;;;;20.00;15.00;;;;;18.75;100.00;101507.38;5106983;27;45532;-74
2023/09/13 03:45:07;;;;;;;;;23.67;19.33;;;;;18.72;100.00;101513.78;5100149;27;45979;-74
2023/09/13 03:47:32;;;;;;;;;19.33;17.00;;;;;18.77;100.00;101517.00;5099233;27;45406;-75
2023/09/13 03:49:57;;;;;;;;;18.33;17.00;;;;;18.75;100.00;101523.44;5104113;27;45502;-74
2023/09/13 03:52:23;;;;;;;;;18.00;17.33;;;;;18.74;100.00;101525.25;5102010;27;45350;-74
2023/09/13 03:54:48;;;;;;;;;17.33;17.33;;;;;18.68;100.00;101518.50;5113677;27;45466;-75
2023/09/13 03:57:13;;;;;;;;;18.00;17.00;;;;;18.61;100.00;101502.97;5111331;27;45278;-75
2023/09/13 03:59:39;;;;;;;;;14.67;14.67;;;;;18.58;100.00;101506.72;5104075;27;56887;-74
2023/09/13 04:02:04;;;;;;;;;19.67;16.67;;;;;18.58;100.00;101504.03;5107969;27;48010;-74
2023/09/13 04:04:29;;;;;;;;;22.00;19.00;;;;;18.54;100.00;101507.03;5102111;27;45385;-74
2023/09/13 04:06:54;;;;;;;;;18.33;17.33;;;;;18.57;100.00;101521.06;5104640;27;45556;-74
2023/09/13 04:09:21;;;;;;;;;20.67;16.67;;;;;18.57;100.00;101526.44;5100638;27;45432;-74
2023/09/13 04:11:47;;;;;;;;;21.00;16.33;;;;;18.53;100.00;101524.91;5108708;27;45436;-74
2023/09/13 04:14:13;;;;;;;;;17.33;15.00;;;;;18.55;100.00;101527.50;5111515;27;45390;-75
2023/09/13 04:16:38;;;;;;;;;20.33;19.00;;;;;18.54;100.00;101532.00;5113098;27;45375;-74
2023/09/13 04:19:03;;;;;;;;;14.33;12.00;;;;;18.52;100.00;101528.56;5110123;27;45586;-75
2023/09/13 04:21:29;;;;;;;;;15.67;15.67;;;;;18.37;100.00;101501.94;5108049;27;45460;-74
2023/09/13 04:23:54;;;;;;;;;18.67;16.67;;;;;18.48;100.00;101513.63;5113737;27;45547;-74
2023/09/13 04:26:21;;;;;;;;;21.00;17.00;;;;;18.53;100.00;101521.38;5101116;27;44699;-75
2023/09/13 04:28:46;;;;;;;;;17.00;17.00;;;;;18.48;100.00;101515.47;5111279;27;46043;-75
2023/09/13 04:31:12;;;;;;;;;18.00;17.00;;;;;18.51;100.00;101516.13;5115361;27;45532;-75
2023/09/13 04:33:54;;;;;;;;;16.67;14.33;;;;;18.56;100.00;101519.34;5110581;27;51987;-75
2023/09/13 04:36:20;;;;;;;;;18.00;16.67;;;;;18.57;100.00;101517.53;5114490;27;45496;-74
2023/09/13 04:38:49;;;;;;;;;14.00;12.33;;;;;18.53;100.00;101508.84;5101235;27;45361;-74
2023/09/13 04:41:16;;;;;;;;;16.00;14.67;;;;;18.56;100.00;101516.66;5102130;27;45530;-74
2023/09/13 04:43:42;;;;;;;;;15.33;13.67;;;;;18.56;100.00;101522.03;5111098;27;45414;-75
2023/09/13 04:46:07;;;;;;;;;17.00;15.67;;;;;18.61;100.00;101527.94;5108665;27;45476;-75
2023/09/13 04:48:34;;;;;;;;;17.33;14.33;;;;;18.62;100.00;101529.63;5110803;27;45291;-74
2023/09/13 04:50:59;;;;;;;;;12.00;10.33;;;;;18.64;100.00;101535.75;5108478;27;45460;-74
2023/09/13 04:53:25;;;;;;;;;13.67;12.00;;;;;18.65;100.00;101537.47;5116029;27;45661;-75
2023/09/13 04:55:50;;;;;;;;;15.67;14.00;;;;;18.54;100.00;101531.13;5116871;27;45350;-75
2023/09/13 04:58:15;;;;;;;;;12.33;12.33;;;;;18.68;100.00;101549.81;5102323;27;46432;-75
2023/09/13 05:00:41;;;;;;;;;14.33;14.00;;;;;18.69;100.00;101549.69;5108145;27;45288;-74
2023/09/13 05:03:06;;;;;;;;;12.33;12.33;;;;;18.63;100.00;101535.84;5121971;27;45319;-74
2023/09/13 05:05:31;;;;;;;;;14.33;13.67;;;;;18.72;100.00;101540.56;5106347;27;45340;-75
2023/09/13 05:07:57;;;;;;;;;15.00;14.00;;;;;18.70;100.00;101532.66;5104897;27;45381;-74
2023/09/13 05:10:22;;;;;;;;;16.00;12.00;;;;;18.68;100.00;101534.56;5119158;27;45463;-75
2023/09/13 05:12:48;;;;;;;;;15.00;14.67;;;;;18.75;100.00;101543.03;5129100;27;45870;-74
2023/09/13 05:15:14;;;;;;;;;17.67;16.67;;;;;18.69;100.00;101533.63;5122238;27;45504;-74
2023/09/13 05:17:40;;;;;;;;;16.67;12.00;;;;;18.72;100.00;101546.78;5115268;27;45415;-74
2023/09/13 05:20:05;;;;;;;;;18.67;16.67;;;;;18.79;100.00;101551.72;5117190;27;45230;-74
2023/09/13 05:22:32;;;;;;;;;24.00;16.67;;;;;18.65;100.00;101540.13;5120224;27;45473;-74
2023/09/13 05:24:58;;;;;;;;;15.00;14.00;;;;;18.75;100.00;101564.47;5121659;27;45625;-74
2023/09/13 05:27:24;;;;;;;;;18.33;15.33;;;;;18.76;100.00;101560.84;5114555;27;45436;-75
2023/09/13 05:29:49;;;;;;;;;16.67;16.67;;;;;18.69;100.00;101562.22;5119570;27;46331;-75
2023/09/13 05:32:14;;;;;;;;;18.00;17.00;;;;;18.79;100.00;101578.53;5120132;27;45366;-74
2023/09/13 05:34:40;;;;;;;;;16.33;16.33;;;;;18.82;100.00;101583.66;5123001;27;45447;-75
2023/09/13 05:37:05;;;;;;;;;20.67;17.00;;;;;18.81;100.00;101587.34;5120524;27;46242;-75
2023/09/13 05:39:30;;;;;;;;;18.00;16.67;;;;;18.79;100.00;101581.22;5117462;27;45455;-74
2023/09/13 05:41:55;;;;;;;;;19.00;15.67;;;;;18.83;100.00;101596.97;5110928;27;46050;-74
2023/09/13 05:44:23;;;;;;;;;16.00;13.00;;;;;18.79;100.00;101584.75;5113452;27;45531;-74
2023/09/13 05:46:51;;;;;;;;;24.00;22.00;;;;;18.85;100.00;101597.72;5126472;27;45478;-75
2023/09/13 05:49:17;;;;;;;;;24.33;21.33;;;;;18.80;100.00;101594.50;5113147;27;45495;-74
2023/09/13 05:51:43;;;;;;;;;24.00;20.33;;;;;18.86;100.00;101612.84;5115067;27;45356;-74
2023/09/13 05:54:08;;;;;;;;;21.00;18.33;;;;;18.76;100.00;101586.78;5122354;27;45504;-74
2023/09/13 05:56:33;;;;;;;;;18.67;15.00;;;;;18.88;100.00;101602.03;5123771;27;45545;-74
2023/09/13 05:58:59;;;;;;;;;19.67;18.00;;;;;18.92;100.00;101596.34;5124804;27;49141;-74
2023/09/13 06:01:24;;;;;;;;;17.67;16.33;;;;;18.90;100.00;101606.31;5114241;27;45645;-74
2023/09/13 06:03:49;;;;;;;;;15.00;14.00;;;;;18.95;100.00;101609.53;5130858;27;45293;-75
2023/09/13 06:06:15;;;;;;;;;16.33;16.00;;;;;18.89;100.00;101593.88;5119499;27;46510;-75
2023/09/13 06:08:40;;;;;;;;;20.00;16.33;;;;;18.93;100.00;101608.78;5122065;27;45379;-75
2023/09/13 06:11:05;;;;;;;;;22.67;22.67;;;;;18.99;100.00;101616.41;5116371;27;45444;-75
2023/09/13 06:13:31;;;;;;;;;22.00;17.33;;;;;18.99;100.00;101611.03;5113951;27;45489;-76
2023/09/13 06:15:56;;;;;;;;;21.67;20.00;;;;;19.01;100.00;101613.63;5113355;27;49713;-75
2023/09/13 06:18:23;;;;;;;;;20.00;18.33;;;;;19.01;100.00;101617.16;5113172;27;47902;-75
2023/09/13 06:20:48;;;;;;;;;18.67;18.67;;;;;18.97;100.00;101604.06;5112698;27;45583;-75
2023/09/13 06:23:33;;;;;;;;;20.00;19.67;;;;;18.93;100.00;101603.44;5122017;27;51310;-75
2023/09/13 06:25:58;;;;;;;;;22.67;20.33;;;;;18.95;100.00;101596.13;5106024;27;45383;-75
2023/09/13 06:28:24;;;;;;;;;17.00;15.33;;;;;19.00;100.00;101618.13;5105838;27;45349;-75
2023/09/13 06:30:49;;;;;;;;;19.33;18.67;;;;;19.07;100.00;101621.25;5110050;27;45437;-75
2023/09/13 06:33:14;;;;;;;;;13.67;13.67;;;;;19.10;100.00;101626.41;5118056;27;45362;-75
2023/09/13 06:35:40;;;;;;;;;15.67;14.33;;;;;19.12;100.00;101627.13;5102564;27;45505;-75
2023/09/13 06:38:05;;;;;;;;;18.67;18.67;;;;;19.10;100.00;101635.31;5103121;27;45386;-75
2023/09/13 06:40:30;;;;;;;;;21.33;19.67;;;;;19.10;100.00;101626.41;5106584;27;45317;-74
2023/09/13 06:42:55;;;;;;;;;19.00;16.33;;;;;19.18;100.00;101632.94;5121451;27;49641;-75
2023/09/13 06:45:21;;;;;;;;;18.00;18.00;;;;;19.11;100.00;101622.72;5114601;27;52505;-75
2023/09/13 06:47:47;;;;;;;;;14.67;14.33;;;;;19.23;100.00;101643.34;5104210;27;45959;-75
2023/09/13 06:50:13;;;;;;;;;18.67;18.67;;;;;19.25;100.00;101636.03;5106618;27;45321;-74
2023/09/13 06:52:38;;;;;;;;;18.67;16.67;;;;;19.27;100.00;101638.63;5119757;27;46408;-75
2023/09/13 06:55:04;;;;;;;;;18.67;16.67;;;;;19.27;100.00;101632.28;5110681;27;54196;-76
2023/09/13 06:57:30;;;;;;;;;19.00;17.00;;;;;19.33;100.00;101641.75;5111906;27;45326;-74
2023/09/13 06:59:55;;;;;;;;;20.00;20.00;;;;;19.30;100.00;101633.91;5116014;27;52194;-75
2023/09/13 07:02:21;;;;;;;;;18.67;17.00;;;;;19.33;100.00;101627.47;5104164;27;45420;-75
2023/09/13 07:04:46;;;;;;;;;16.67;14.67;;;;;19.43;100.00;101640.16;5104598;27;47480;-74
2023/09/13 07:07:12;;;;;;;;;22.00;20.33;;;;;19.40;100.00;101636.81;5104847;27;45363;-75
2023/09/13 07:09:37;;;;;;;;;17.33;15.67;;;;;19.46;100.00;101644.44;5115133;27;45800;-75
2023/09/13 07:12:03;;;;;;;;;19.67;17.67;;;;;19.49;100.00;101639.72;5110772;27;45461;-75
2023/09/13 07:14:28;;;;;;;;;20.67;14.67;;;;;19.58;100.00;101647.09;5122296;27;45494;-75
2023/09/13 07:16:54;;;;;;;;;16.00;14.00;;;;;19.61;100.00;101654.06;5110245;27;45326;-75
2023/09/13 07:19:19;;;;;;;;;17.33;17.33;;;;;19.63;100.00;101652.16;5118903;27;45468;-75
2023/09/13 07:21:44;;;;;;;;;18.33;16.33;;;;;19.70;100.00;101656.97;5121072;27;51777;-75
2023/09/13 07:24:11;;;;;;;;;17.33;17.33;;;;;19.73;100.00;101650.53;5112947;27;45986;-75
2023/09/13 07:26:36;;;;;;;;;19.67;17.67;;;;;19.73;100.00;101647.84;5120002;27;45251;-75
2023/09/13 07:29:02;;;;;;;;;24.00;23.00;;;;;19.70;100.00;101650.72;5108655;27;45142;-75
2023/09/13 07:31:27;;;;;;;;;15.67;15.67;;;;;19.74;100.00;101655.78;5118496;27;45434;-75
2023/09/13 07:33:53;;;;;;;;;17.00;17.00;;;;;19.81;100.00;101666.94;5112892;27;46367;-75
2023/09/13 07:36:18;;;;;;;;;18.67;18.67;;;;;19.76;100.00;101653.00;5113796;27;45386;-75
2023/09/13 07:38:44;;;;;;;;;18.00;16.67;;;;;19.79;100.00;101666.19;5113691;27;45415;-75
2023/09/13 07:41:09;;;;;;;;;16.67;14.00;;;;;19.78;100.00;101667.16;5104779;27;45467;-75
2023/09/13 07:43:35;;;;;;;;;19.33;18.00;;;;;19.80;100.00;101680.47;5110774;27;46976;-75
2023/09/13 07:46:01;;;;;;;;;17.33;15.00;;;;;19.86;100.00;101680.03;5113949;27;45521;-75
2023/09/13 07:48:27;;;;;;;;;15.67;15.33;;;;;19.85;100.00;101675.63;5112067;27;45369;-75
2023/09/13 07:50:53;;;;;;;;;20.67;14.67;;;;;19.87;100.00;101685.28;5108344;27;45311;-75
2023/09/13 07:53:18;;;;;;;;;41.67;35.00;;;;;19.85;100.00;101678.31;5120982;27;45334;-75
2023/09/13 07:55:43;;;;;;;;;24.33;21.33;;;;;19.96;100.00;101689.16;5110404;27;46252;-75
2023/09/13 07:58:09;;;;;;;;;15.67;15.67;;;;;19.94;100.00;101680.31;5122937;27;45261;-75
2023/09/13 08:00:35;;;;;;;;;15.67;13.00;;;;;20.04;100.00;101702.88;5116873;27;45471;-75
2023/09/13 08:03:03;;;;;;;;;17.00;15.00;;;;;20.05;100.00;101699.22;5111880;27;45246;-75
2023/09/13 08:05:28;;;;;;;;;25.33;20.67;;;;;20.08;100.00;101699.84;5121300;27;45322;-75
2023/09/13 08:07:54;;;;;;;;;14.00;14.00;;;;;20.10;100.00;101705.97;5131701;27;45294;-75
2023/09/13 08:10:21;;;;;;;;;13.67;13.67;;;;;20.11;100.00;101706.81;5115257;27;45375;-75
2023/09/13 08:12:48;;;;;;;;;15.67;15.00;;;;;20.10;100.00;101708.66;5112317;27;45423;-75
2023/09/13 08:15:13;;;;;;;;;19.00;19.00;;;;;20.15;100.00;101702.97;5129689;27;45404;-75
2023/09/13 08:17:39;;;;;;;;;27.33;25.67;;;;;20.12;100.00;101709.38;5128717;27;45343;-75
2023/09/13 08:20:07;;;;;;;;;26.00;26.00;;;;;20.14;100.00;101704.78;5129201;27;45517;-75
2023/09/13 08:22:33;;;;;;;;;19.67;18.67;;;;;20.17;100.00;101715.31;5126616;27;45627;-75
2023/09/13 08:24:58;;;;;;;;;21.00;18.00;;;;;20.26;100.00;101714.66;5117324;27;45383;-75
2023/09/13 08:27:23;;;;;;;;;19.33;14.00;;;;;20.30;100.00;101707.22;5131175;27;45476;-75
2023/09/13 08:29:48;;;;;;;;;17.33;14.67;;;;;20.44;100.00;101715.16;5125441;27;51159;-75
2023/09/13 08:32:14;;;;;;;;;12.67;12.67;;;;;20.62;100.00;101723.66;5115413;27;44992;-75
2023/09/13 08:34:39;;;;;;;;;13.00;12.33;;;;;20.67;100.00;101724.19;5133717;27;44818;-75
2023/09/13 08:37:04;;;;;;;;;15.67;15.33;;;;;20.71;100.00;101739.13;5135825;27;44750;-75
2023/09/13 08:39:30;;;;;;;;;12.00;12.00;;;;;20.65;100.00;101724.28;5121293;27;54870;-75
2023/09/13 08:41:55;;;;;;;;;10.00;10.00;;;;;20.58;100.00;101747.22;5135132;27;45301;-75
2023/09/13 08:44:22;;;;;;;;;18.67;13.00;;;;;20.48;100.00;101734.59;5132066;27;45366;-75
2023/09/13 08:46:55;;;;;;;;;20.00;17.67;;;;;20.54;100.00;101755.63;5131774;27;44755;-76
2023/09/13 08:49:21;;;;;;;;;12.00;12.00;;;;;20.40;100.00;101745.91;5119937;27;44764;-75
2023/09/13 08:51:47;;;;;;;;;14.33;14.33;;;;;20.48;100.00;101754.28;5117167;27;47203;-75
2023/09/13 08:54:14;;;;;;;;;17.00;16.00;;;;;20.53;100.00;101762.84;5122898;27;45410;-75
2023/09/13 08:56:43;;;;;;;;;13.00;13.00;;;;;20.58;100.00;101762.50;5127348;27;44707;-75
2023/09/13 08:59:09;;;;;;;;;17.00;17.00;;;;;20.73;100.00;101770.28;5113476;27;45299;-76
2023/09/13 09:01:36;;;;;;;;;46.67;38.33;;;;;20.92;100.00;101756.31;5112753;27;45336;-76
2023/09/13 09:04:02;;;;;;;;;39.00;34.00;;;;;21.16;100.00;101767.97;5114582;27;45326;-76
2023/09/13 09:06:30;;;;;;;;;28.00;26.33;;;;;21.34;100.00;101771.06;5115875;27;45336;-75
2023/09/13 09:08:56;;;;;;;;;16.67;16.33;;;;;21.42;100.00;101782.09;5130570;27;45306;-76
2023/09/13 09:11:25;;;;;;;;;12.33;12.33;;;;;21.35;100.00;101780.00;5129264;27;45322;-76
2023/09/13 09:13:53;;;;;;;;;13.67;12.00;;;;;21.25;100.00;101769.94;5133843;27;45516;-75
2023/09/13 09:16:21;;;;;;;;;16.33;15.33;;;;;21.32;100.00;101774.84;5135244;27;45369;-76
2023/09/13 09:18:48;;;;;;;;;16.00;14.67;;;;;21.36;100.00;101781.72;5131682;27;45469;-76
2023/09/13 09:21:15;;;;;;;;;17.33;14.67;;;;;21.44;100.00;101790.03;5115253;27;46519;-76
2023/09/13 09:23:41;;;;;;;;;11.00;11.00;;;;;21.39;100.00;101762.66;5134040;27;45279;-76
2023/09/13 09:26:07;;;;;;;;;16.33;14.67;;;;;21.61;100.00;101781.53;5122958;27;44715;-77
2023/09/13 09:28:32;;;;;;;;;8.00;8.00;;;;;21.69;100.00;101782.63;5126495;27;45257;-76
2023/09/13 09:31:01;;;;;;;;;12.00;11.00;;;;;21.77;100.00;101777.53;5126257;27;45989;-76
2023/09/13 09:33:30;;;;;;;;;24.33;23.33;;;;;21.79;100.00;101766.66;5114843;27;45980;-76
2023/09/13 09:36:00;;;;;;;;;9.00;8.00;;;;;21.88;100.00;101782.06;5118489;27;45200;-75
2023/09/13 09:38:30;;;;;;;;;9.00;7.00;;;;;21.79;100.00;101772.88;5131161;27;45718;-76
2023/09/13 09:41:06;;;;;;;;;8.33;8.33;;;;;21.72;100.00;101779.72;5114694;27;45754;-76
2023/09/13 09:43:33;;;;;;;;;6.67;6.00;;;;;21.70;100.00;101789.75;5112774;27;45357;-76
2023/09/13 09:45:58;;;;;;;;;6.33;6.00;;;;;21.69;100.00;101784.50;5125787;27;45313;-75
2023/09/13 09:48:26;;;;;;;;;5.67;5.67;;;;;21.62;100.00;101778.75;5110971;27;45334;-75
2023/09/13 09:50:53;;;;;;;;;9.00;7.33;;;;;21.68;100.00;101780.09;5106432;27;45420;-76
2023/09/13 09:53:20;;;;;;;;;8.00;8.00;;;;;21.75;100.00;101781.31;5117930;27;45317;-76
2023/09/13 09:55:46;;;;;;;;;7.33;6.67;;;;;21.78;100.00;101773.00;5106923;27;45496;-76
2023/09/13 09:58:12;;;;;;;;;22.33;21.67;;;;;21.89;100.00;101767.63;5115814;27;45360;-76
2023/09/13 10:00:46;;;;;;;;;6.00;6.00;;;;;22.08;100.00;101777.84;5114272;27;45373;-75
2023/09/13 10:03:17;;;;;;;;;6.67;6.67;;;;;22.23;100.00;101773.91;5113579;27;46310;-76
2023/09/13 10:06:15;;;;;;;;;4.00;4.00;;;;;22.30;97.50;101773.28;5104091;27;45251;-76
2023/09/13 10:08:40;;;;;;;;;7.33;6.00;;;;;22.43;95.39;101789.31;5111593;27;45836;-76
2023/09/13 10:11:11;;;;;;;;;7.33;6.00;;;;;22.39;91.37;101782.44;5103925;27;45204;-76
2023/09/13 10:13:38;;;;;;;;;6.67;6.00;;;;;22.43;99.26;101781.22;5119432;27;45311;-76
2023/09/13 10:16:06;;;;;;;;;8.00;6.33;;;;;22.47;99.00;101779.16;5114908;27;45476;-76
2023/09/13 10:18:37;;;;;;;;;5.00;5.00;;;;;22.57;92.21;101783.66;5106259;27;45588;-76
2023/09/13 10:21:04;;;;;;;;;6.00;6.00;;;;;22.60;98.75;101782.56;5100694;27;45507;-75
2023/09/13 10:23:38;;;;;;;;;10.33;7.67;;;;;22.57;97.97;101780.97;5114214;27;45286;-76
2023/09/13 10:26:07;;;;;;;;;5.00;5.00;;;;;22.59;98.85;101792.47;5104324;27;45516;-76
2023/09/13 10:28:35;;;;;;;;;7.33;5.67;;;;;22.55;93.62;101787.44;5114518;27;45547;-75
2023/09/13 10:31:02;;;;;;;;;11.33;9.33;;;;;22.49;100.00;101787.94;5116505;27;45340;-75
2023/09/13 10:33:31;;;;;;;;;8.33;6.33;;;;;22.46;95.17;101777.41;5119810;27;45250;-76
2023/09/13 10:35:59;;;;;;;;;8.33;6.33;;;;;22.43;95.48;101789.31;5115921;27;45473;-74
2023/09/13 10:38:49;;;;;;;;;6.00;6.00;;;;;22.45;94.58;101799.97;5104427;27;45505;-75
2023/09/13 10:41:17;;;;;;;;;5.00;5.00;;;;;22.52;100.00;101798.50;5107712;27;46110;-74
2023/09/13 10:43:44;;;;;;;;;6.67;5.33;;;;;22.54;95.08;101793.84;5103918;27;45508;-75
2023/09/13 10:46:10;;;;;;;;;4.67;4.33;;;;;22.59;94.09;101800.56;5119212;27;45300;-75
2023/09/13 10:48:38;;;;;;;;;6.67;6.67;;;;;22.67;98.61;101794.59;5114803;27;45414;-75
2023/09/13 10:51:04;;;;;;;;;9.00;7.67;;;;;22.75;100.00;101795.66;5102842;27;45294;-75
2023/09/13 10:53:30;;;;;;;;;7.67;6.00;;;;;22.87;96.97;101798.34;5114647;27;45484;-75
2023/09/13 10:55:56;;;;;;;;;6.33;6.33;;;;;22.94;90.90;101789.59;5107153;27;45371;-75
2023/09/13 10:58:22;;;;;;;;;9.67;7.33;;;;;22.92;86.71;101786.16;5108681;27;45701;-75
2023/09/13 11:00:50;;;;;;;;;5.67;5.67;;;;;23.01;86.71;101795.31;5110679;27;45467;-76
2023/09/13 11:03:17;;;;;;;;;7.00;6.33;;;;;23.03;86.33;101783.44;5102961;27;45625;-75